Аэропорт: Актау. Актау

ICAO: UATE

METAR:
2018/11/19 10:00
UATE 191000Z 30002MPS 260V350 CAVOK 07/M02 Q1025 R30/0///70 NOSIG RMK QFE767/1023
METAR:
2018/11/19 06:18
TAF UATE 190505Z 1906/2006 VRB02MPS 9999 BKN020 TX06/1909Z TNM04/2002Z